createdAt,value
2023-04-14T00:01:34.438Z,18.37
2023-04-14T00:06:39.713Z,18.41
2023-04-14T00:11:43.440Z,18.21
2023-04-14T00:16:47.172Z,18.14
2023-04-14T00:21:52.522Z,17.81
2023-04-14T00:26:56.228Z,17.78
2023-04-14T00:31:59.852Z,17.38
2023-04-14T00:37:05.139Z,17.19
2023-04-14T00:42:08.768Z,17.02
2023-04-14T00:47:12.584Z,16.67
2023-04-14T00:52:17.938Z,16.72
2023-04-14T00:57:21.734Z,16.69
2023-04-14T01:02:26.866Z,16.81
2023-04-14T01:07:33.299Z,16.64
2023-04-14T01:12:56.086Z,16.73
2023-04-14T01:18:06.201Z,16.71
2023-04-14T01:23:16.629Z,16.48
2023-04-14T01:28:38.386Z,16.37
2023-04-14T01:33:49.544Z,16.20
2023-04-14T01:38:55.487Z,16.00
2023-04-14T01:44:02.469Z,15.86
2023-04-14T01:49:09.372Z,15.98
2023-04-14T01:54:13.978Z,15.84
2023-04-14T01:59:19.862Z,15.73
2023-04-14T02:04:29.432Z,15.29
2023-04-14T02:09:34.936Z,14.97
2023-04-14T02:14:41.586Z,15.04
2023-04-14T02:19:48.569Z,14.90
2023-04-14T02:24:52.272Z,14.77
2023-04-14T02:29:57.411Z,14.68
2023-04-14T02:35:07.140Z,14.58
2023-04-14T02:40:16.261Z,14.48
2023-04-14T02:45:23.884Z,14.30
2023-04-14T02:50:31.303Z,14.14
2023-04-14T02:55:35.655Z,13.98
2023-04-14T03:00:40.860Z,13.87
2023-04-14T03:05:48.849Z,13.80
2023-04-14T03:10:55.182Z,13.87
2023-04-14T03:15:59.302Z,13.79
2023-04-14T03:21:06.041Z,13.69
2023-04-14T03:26:10.667Z,13.66
2023-04-14T03:31:15.812Z,13.52
2023-04-14T03:36:22.063Z,13.39
2023-04-14T03:41:26.886Z,13.29
2023-04-14T03:46:30.576Z,13.31
2023-04-14T03:51:36.900Z,13.33
2023-04-14T03:56:41.746Z,13.36
2023-04-14T04:01:47.252Z,13.32
2023-04-14T04:06:53.496Z,13.48
2023-04-14T04:11:58.679Z,13.41
2023-04-14T04:17:06.632Z,13.30
2023-04-14T04:22:15.265Z,13.14
2023-04-14T04:27:27.767Z,13.18
2023-04-14T04:32:32.236Z,13.14
2023-04-14T04:37:38.567Z,13.03
2023-04-14T04:42:42.767Z,12.95
2023-04-14T04:47:46.488Z,12.89
2023-04-14T04:52:51.760Z,12.89
2023-04-14T04:57:55.372Z,12.81
2023-04-14T05:02:59.237Z,12.75
2023-04-14T05:08:05.004Z,12.80
2023-04-14T05:13:08.654Z,12.70
2023-04-14T05:18:12.413Z,12.63
2023-04-14T05:23:17.695Z,12.60
2023-04-14T05:28:21.309Z,12.46
2023-04-14T05:33:24.929Z,12.38
2023-04-14T05:38:30.244Z,12.28
2023-04-14T05:43:33.822Z,12.08
2023-04-14T05:48:37.432Z,12.04
2023-04-14T05:53:42.741Z,11.88
2023-04-14T05:58:46.379Z,11.80
2023-04-14T06:03:50.212Z,11.89
2023-04-14T06:08:55.710Z,11.82
2023-04-14T06:13:59.831Z,11.74
2023-04-14T06:19:03.842Z,11.74
2023-04-14T06:24:10.907Z,11.63
2023-04-14T06:29:14.588Z,11.53
2023-04-14T06:34:18.210Z,11.49
2023-04-14T06:39:23.532Z,11.51
2023-04-14T06:44:27.864Z,11.51
2023-04-14T06:49:31.498Z,11.44
2023-04-14T06:54:36.706Z,11.50
2023-04-14T06:59:41.019Z,11.45
2023-04-14T07:04:44.729Z,11.46
2023-04-14T07:09:50.043Z,11.40
2023-04-14T07:14:53.749Z,11.37
2023-04-14T07:19:57.405Z,11.32
2023-04-14T07:25:03.592Z,11.28
2023-04-14T07:30:07.018Z,11.13
2023-04-14T07:35:11.576Z,10.86
2023-04-14T07:40:17.024Z,10.54
2023-04-14T07:45:20.680Z,10.51
2023-04-14T07:50:24.399Z,10.65
2023-04-14T07:55:29.713Z,10.76
2023-04-14T08:00:33.343Z,10.72
2023-04-14T08:05:37.103Z,10.45
2023-04-14T08:10:42.458Z,10.29
2023-04-14T08:15:46.776Z,10.44
2023-04-14T08:20:50.407Z,10.55
2023-04-14T08:25:55.641Z,10.46
2023-04-14T08:30:59.395Z,10.38
2023-04-14T08:36:03.063Z,10.22
2023-04-14T08:41:09.551Z,9.86
2023-04-14T08:46:15.036Z,9.79
2023-04-14T08:51:31.092Z,9.69
2023-04-14T08:56:39.055Z,9.76
2023-04-14T09:01:42.731Z,9.85
2023-04-14T09:06:46.604Z,9.81
2023-04-14T09:11:53.150Z,9.99
2023-04-14T09:16:57.212Z,10.01
2023-04-14T09:22:01.080Z,10.16
2023-04-14T09:27:06.999Z,10.12
2023-04-14T09:32:10.616Z,10.09
2023-04-14T09:37:14.226Z,10.02
2023-04-14T09:42:19.952Z,9.97
2023-04-14T09:47:24.432Z,9.92
2023-04-14T09:52:41.538Z,9.92
2023-04-14T09:57:48.006Z,9.95
2023-04-14T10:02:53.354Z,10.00
2023-04-14T10:08:02.310Z,9.86
2023-04-14T10:13:07.641Z,9.86
2023-04-14T10:18:11.336Z,9.64
2023-04-14T10:23:16.028Z,9.42
2023-04-14T10:28:22.134Z,9.20
2023-04-14T10:33:26.060Z,8.89
2023-04-14T10:38:43.319Z,8.76
2023-04-14T10:43:48.725Z,8.77
2023-04-14T10:48:53.844Z,8.77
2023-04-14T10:53:57.547Z,8.81
2023-04-14T10:59:04.099Z,8.84
2023-04-14T11:04:18.881Z,8.91
2023-04-14T11:09:34.846Z,8.89
2023-04-14T11:14:40.221Z,8.78
2023-04-14T11:19:43.940Z,8.57
2023-04-14T11:24:47.847Z,8.50
2023-04-14T11:29:55.846Z,8.46
2023-04-14T11:35:09.750Z,8.51
2023-04-14T11:40:15.012Z,8.41
2023-04-14T11:45:20.520Z,8.39
2023-04-14T11:50:24.296Z,8.27
2023-04-14T11:55:28.553Z,8.23
2023-04-14T12:00:34.035Z,8.29
2023-04-14T12:05:38.379Z,8.18
2023-04-14T12:10:42.631Z,8.09
2023-04-14T12:15:48.217Z,8.11
2023-04-14T12:20:55.130Z,8.06
2023-04-14T12:25:58.787Z,8.12
2023-04-14T12:31:05.391Z,7.95
2023-04-14T12:36:14.343Z,7.89
2023-04-14T12:41:23.556Z,7.98
2023-04-14T12:46:29.689Z,7.87
2023-04-14T12:51:40.158Z,7.93
2023-04-14T12:56:43.758Z,7.90
2023-04-14T13:01:49.164Z,7.88
2023-04-14T13:06:52.785Z,7.90
2023-04-14T13:11:56.401Z,7.82
2023-04-14T13:17:01.708Z,7.75
2023-04-14T13:22:05.341Z,7.71
2023-04-14T13:27:09.011Z,7.62
2023-04-14T13:32:14.496Z,7.58
2023-04-14T13:37:18.118Z,7.61
2023-04-14T13:42:21.718Z,7.64
2023-04-14T13:47:27.074Z,7.56
2023-04-14T13:52:30.691Z,7.57
2023-04-14T13:57:34.421Z,7.58
2023-04-14T14:02:40.583Z,7.72
2023-04-14T14:07:44.620Z,7.74
2023-04-14T14:12:48.240Z,7.83
2023-04-14T14:17:53.602Z,8.04
2023-04-14T14:22:57.322Z,8.37
2023-04-14T14:28:00.946Z,8.73
2023-04-14T14:33:07.252Z,9.16
2023-04-14T14:38:10.155Z,9.31
2023-04-14T14:43:14.939Z,9.53
2023-04-14T14:48:20.225Z,9.99
2023-04-14T14:53:23.866Z,10.50
2023-04-14T14:58:27.517Z,10.94
2023-04-14T15:03:32.997Z,11.36
2023-04-14T15:08:36.712Z,11.78
2023-04-14T15:13:40.365Z,12.24
2023-04-14T15:18:45.651Z,12.55
2023-04-14T15:23:49.304Z,13.16
2023-04-14T15:28:52.931Z,13.83
2023-04-14T15:33:58.892Z,14.25
2023-04-14T15:39:02.558Z,14.78
2023-04-14T15:44:06.341Z,15.38
2023-04-14T15:49:11.600Z,15.93
2023-04-14T15:54:15.234Z,16.42
2023-04-14T15:59:18.941Z,16.64
2023-04-14T16:04:24.354Z,17.32
2023-04-14T16:09:28.154Z,17.88
2023-04-14T16:14:32.657Z,17.87
2023-04-14T16:19:38.061Z,18.22
2023-04-14T16:24:41.799Z,18.32
2023-04-14T16:29:45.403Z,18.28
2023-04-14T16:34:50.902Z,18.41
2023-04-14T16:39:57.854Z,18.33
2023-04-14T16:45:01.544Z,18.80
2023-04-14T16:50:07.720Z,18.95
2023-04-14T16:55:12.190Z,19.04
2023-04-14T17:00:16.555Z,18.96
2023-04-14T17:05:22.156Z,18.73
2023-04-14T17:10:26.782Z,18.57
2023-04-14T17:15:30.443Z,18.89
2023-04-14T17:20:35.705Z,18.42
2023-04-14T17:25:39.353Z,18.72
2023-04-14T17:30:43.038Z,18.21
2023-04-14T17:35:49.416Z,18.36
2023-04-14T17:40:54.361Z,18.30
2023-04-14T17:45:58.161Z,18.55
2023-04-14T17:51:04.228Z,18.52
2023-04-14T17:56:09.348Z,18.60
2023-04-14T18:01:15.426Z,18.81
2023-04-14T18:06:20.686Z,19.05
2023-04-14T18:11:24.480Z,19.18
2023-04-14T18:16:28.220Z,19.15
2023-04-14T18:21:33.473Z,18.80
2023-04-14T18:26:37.102Z,18.70
2023-04-14T18:31:40.813Z,18.56
2023-04-14T18:36:46.148Z,18.83
2023-04-14T18:41:49.826Z,18.83
2023-04-14T18:46:53.513Z,19.08
2023-04-14T18:51:58.834Z,19.00
2023-04-14T18:57:02.449Z,19.28
2023-04-14T19:02:06.194Z,19.00
2023-04-14T19:07:11.624Z,18.95
2023-04-14T19:12:25.418Z,18.71
2023-04-14T19:17:34.506Z,18.82
2023-04-14T19:22:40.549Z,18.64
2023-04-14T19:27:44.185Z,19.13
2023-04-14T19:32:47.821Z,18.82
2023-04-14T19:37:53.090Z,18.73
2023-04-14T19:42:57.470Z,19.09
2023-04-14T19:48:09.904Z,19.33
2023-04-14T19:53:25.569Z,19.24
2023-04-14T19:58:29.334Z,19.46
2023-04-14T20:03:34.476Z,19.63
2023-04-14T20:08:39.624Z,19.90
2023-04-14T20:13:43.454Z,20.03
2023-04-14T20:18:47.053Z,19.90
2023-04-14T20:23:52.372Z,19.89
2023-04-14T20:28:56.069Z,19.75
2023-04-14T20:33:59.731Z,19.67
2023-04-14T20:39:05.916Z,19.56
2023-04-14T20:44:09.741Z,19.64
2023-04-14T20:49:13.365Z,19.51
2023-04-14T20:54:18.957Z,19.73
2023-04-14T20:59:22.570Z,19.40
2023-04-14T21:04:26.284Z,19.49
2023-04-14T21:09:31.550Z,19.55
2023-04-14T21:15:40.642Z,19.60
2023-04-14T21:19:58.822Z,19.78
2023-04-14T21:25:04.197Z,19.94
2023-04-14T21:30:08.951Z,20.25
2023-04-14T21:35:12.620Z,20.44
2023-04-14T21:40:17.889Z,20.81
2023-04-14T21:45:21.475Z,20.96
2023-04-14T21:50:25.081Z,20.68
2023-04-14T21:55:30.617Z,20.67
2023-04-14T22:00:34.264Z,20.69
2023-04-14T22:05:37.889Z,20.78
2023-04-14T22:10:44.133Z,21.07
2023-04-14T22:15:47.879Z,20.91
2023-04-14T22:20:51.543Z,20.81
2023-04-14T22:25:56.809Z,20.57
2023-04-14T22:31:00.453Z,20.33
2023-04-14T22:36:06.493Z,20.23
2023-04-14T22:41:11.767Z,20.16
2023-04-14T22:46:17.428Z,19.96
2023-04-14T22:51:21.062Z,20.14
2023-04-14T22:56:27.140Z,20.07
2023-04-14T23:01:30.802Z,20.04
2023-04-14T23:06:35.319Z,20.09
2023-04-14T23:11:40.812Z,20.31
2023-04-14T23:16:44.579Z,20.84
2023-04-14T23:21:49.715Z,20.82
2023-04-14T23:26:56.535Z,20.68
2023-04-14T23:32:00.169Z,20.56
2023-04-14T23:37:03.893Z,20.54
2023-04-14T23:42:09.179Z,20.26
2023-04-14T23:47:12.840Z,20.54
2023-04-14T23:52:16.577Z,20.42
2023-04-14T23:57:22.291Z,20.66
